createdAt,value
2018-02-10T00:00:07.191Z,53.90
2018-02-10T00:01:07.204Z,59.20
2018-02-10T00:02:07.210Z,56.20
2018-02-10T00:03:07.220Z,53.70
2018-02-10T00:04:07.234Z,50.70
2018-02-10T00:05:07.240Z,53.20
2018-02-10T00:06:07.248Z,52.90
2018-02-10T00:07:07.258Z,55.10
2018-02-10T00:08:07.268Z,53.80
2018-02-10T00:09:07.278Z,52.50
2018-02-10T00:10:07.287Z,57.20
2018-02-10T00:11:07.299Z,53.00
2018-02-10T00:12:07.307Z,51.80
2018-02-10T00:13:07.422Z,54.00
2018-02-10T00:14:07.325Z,56.10
2018-02-10T00:15:07.335Z,51.70
2018-02-10T00:16:07.346Z,53.90
2018-02-10T00:17:07.354Z,53.70
2018-02-10T00:18:07.369Z,51.70
2018-02-10T00:19:07.374Z,51.40
2018-02-10T00:20:07.384Z,53.70
2018-02-10T00:21:07.394Z,50.40
2018-02-10T00:22:07.403Z,50.80
2018-02-10T00:23:07.412Z,47.40
2018-02-10T00:24:07.523Z,54.10
2018-02-10T00:25:07.432Z,48.70
2018-02-10T00:26:07.442Z,47.90
2018-02-10T00:27:07.451Z,48.70
2018-02-10T00:28:07.561Z,46.70
2018-02-10T00:29:07.472Z,47.70
2018-02-10T00:30:07.480Z,48.40
2018-02-10T00:31:07.489Z,51.00
2018-02-10T00:32:07.500Z,52.40
2018-02-10T00:33:07.610Z,47.90
2018-02-10T00:34:07.517Z,50.70
2018-02-10T00:35:07.527Z,55.40
2018-02-10T00:36:07.539Z,48.70
2018-02-10T00:37:07.547Z,50.40
2018-02-10T00:38:07.557Z,51.10
2018-02-10T00:39:07.565Z,46.60
2018-02-10T00:40:07.576Z,48.40
2018-02-10T00:41:07.635Z,44.90
2018-02-10T00:42:07.595Z,46.60
2018-02-10T00:43:07.603Z,49.70
2018-02-10T00:44:07.614Z,47.70
2018-02-10T00:45:07.624Z,48.20
2018-02-10T00:46:07.632Z,48.20
2018-02-10T00:47:07.644Z,48.70
2018-02-10T00:48:07.653Z,45.20
2018-02-10T00:49:07.663Z,46.00
2018-02-10T00:50:07.671Z,45.10
2018-02-10T00:51:07.681Z,50.30
2018-02-10T00:52:07.690Z,46.00
2018-02-10T00:53:07.700Z,47.20
2018-02-10T00:54:07.708Z,46.40
2018-02-10T00:55:07.819Z,48.70
2018-02-10T00:56:07.730Z,44.40
2018-02-10T00:57:07.738Z,49.90
2018-02-10T00:58:07.747Z,47.90
2018-02-10T00:59:07.758Z,47.10
2018-02-10T01:00:07.766Z,43.80
2018-02-10T01:01:07.775Z,47.60
2018-02-10T01:02:07.788Z,45.10
2018-02-10T01:03:07.795Z,48.10
2018-02-10T01:04:07.805Z,46.40
2018-02-10T01:05:07.816Z,46.60
2018-02-10T01:06:07.926Z,48.50
2018-02-10T01:07:07.833Z,46.50
2018-02-10T01:08:07.848Z,49.40
2018-02-10T01:09:07.852Z,45.90
2018-02-10T01:10:07.863Z,43.90
2018-02-10T01:11:07.872Z,46.40
2018-02-10T01:12:07.881Z,44.90
2018-02-10T01:13:07.891Z,47.40
2018-02-10T01:14:07.901Z,51.40
2018-02-10T01:15:07.913Z,45.90
2018-02-10T01:16:07.919Z,44.70
2018-02-10T01:17:07.930Z,45.40
2018-02-10T01:18:07.940Z,44.30
2018-02-10T01:19:07.950Z,42.90
2018-02-10T01:20:07.959Z,44.40
2018-02-10T01:21:07.969Z,41.90
2018-02-10T01:22:07.977Z,41.90
2018-02-10T01:23:07.988Z,44.60
2018-02-10T01:24:07.998Z,42.30
2018-02-10T01:25:08.007Z,43.60
2018-02-10T01:26:08.016Z,44.10
2018-02-10T01:27:08.025Z,42.30
2018-02-10T01:28:08.034Z,42.20
2018-02-10T01:29:08.043Z,42.70
2018-02-10T01:30:08.053Z,44.70
2018-02-10T01:31:08.066Z,42.60
2018-02-10T01:32:08.073Z,39.70
2018-02-10T01:33:08.082Z,43.20
2018-02-10T01:34:08.091Z,47.10
2018-02-10T01:35:08.101Z,40.50
2018-02-10T01:36:08.111Z,45.40
2018-02-10T01:37:08.121Z,43.60
2018-02-10T01:38:08.229Z,43.20
2018-02-10T01:39:08.139Z,42.60
2018-02-10T01:40:08.149Z,41.40
2018-02-10T01:41:08.157Z,41.60
2018-02-10T01:42:08.166Z,40.00
2018-02-10T01:43:08.177Z,42.70
2018-02-10T01:44:08.186Z,39.80
2018-02-10T01:45:08.196Z,40.60
2018-02-10T01:46:08.204Z,41.40
2018-02-10T01:47:08.213Z,38.50
2018-02-10T01:48:08.223Z,37.80
2018-02-10T01:49:08.232Z,41.20
2018-02-10T01:50:08.243Z,41.90
2018-02-10T01:51:08.251Z,39.70
2018-02-10T01:52:08.260Z,39.80
2018-02-10T01:53:08.272Z,41.70
2018-02-10T01:54:08.279Z,43.10
2018-02-10T01:55:08.294Z,44.60
2018-02-10T01:56:08.300Z,38.70
2018-02-10T01:57:08.310Z,35.50
2018-02-10T01:58:08.319Z,37.30
2018-02-10T01:59:08.327Z,38.60
2018-02-10T02:00:08.336Z,37.50
2018-02-10T02:01:08.347Z,39.00
2018-02-10T02:02:08.454Z,38.70
2018-02-10T02:03:08.364Z,39.80
2018-02-10T02:04:08.374Z,38.20
2018-02-10T02:05:08.383Z,38.80
2018-02-10T02:06:08.393Z,37.10
2018-02-10T02:07:08.402Z,37.10
2018-02-10T02:08:08.414Z,40.10
2018-02-10T02:09:08.421Z,39.40
2018-02-10T02:10:08.431Z,39.10
2018-02-10T02:11:08.441Z,37.60
2018-02-10T02:12:08.450Z,40.90
2018-02-10T02:13:08.458Z,39.00
2018-02-10T02:14:08.468Z,38.00
2018-02-10T02:15:08.478Z,39.20
2018-02-10T02:16:08.491Z,34.70
2018-02-10T02:17:08.498Z,35.70
2018-02-10T02:18:08.508Z,40.30
2018-02-10T02:19:08.516Z,36.90
2018-02-10T02:20:08.525Z,38.20
2018-02-10T02:21:08.535Z,38.20
2018-02-10T02:22:08.544Z,37.60
2018-02-10T02:23:08.554Z,34.70
2018-02-10T02:24:08.563Z,37.10
2018-02-10T02:25:08.573Z,36.80
2018-02-10T02:26:08.588Z,37.60
2018-02-10T02:27:08.593Z,34.50
2018-02-10T02:28:08.603Z,39.90
2018-02-10T02:29:08.713Z,33.90
2018-02-10T02:30:08.622Z,36.40
2018-02-10T02:31:08.638Z,34.50
2018-02-10T02:32:08.652Z,33.40
2018-02-10T02:33:08.652Z,35.20
2018-02-10T02:34:08.660Z,34.60
2018-02-10T02:35:08.669Z,33.00
2018-02-10T02:36:08.679Z,34.50
2018-02-10T02:37:08.690Z,33.60
2018-02-10T02:38:08.759Z,34.00
2018-02-10T02:39:08.709Z,34.30
2018-02-10T02:40:08.718Z,35.60
2018-02-10T02:41:08.728Z,35.20
2018-02-10T02:42:08.737Z,35.90
2018-02-10T02:43:08.747Z,36.90
2018-02-10T02:44:08.758Z,35.80
2018-02-10T02:45:08.777Z,34.40
2018-02-10T02:46:08.775Z,35.30
2018-02-10T02:47:08.785Z,36.60
2018-02-10T02:48:08.795Z,34.40
2018-02-10T02:49:08.806Z,33.80
2018-02-10T02:50:08.821Z,33.20
2018-02-10T02:51:08.825Z,32.50
2018-02-10T02:52:08.835Z,34.30
2018-02-10T02:53:08.944Z,37.30
2018-02-10T02:54:08.853Z,33.00
2018-02-10T02:55:08.964Z,35.40
2018-02-10T02:56:08.872Z,32.90
2018-02-10T02:57:08.884Z,35.50
2018-02-10T02:58:08.892Z,33.50
2018-02-10T02:59:08.902Z,32.70
2018-02-10T03:00:08.912Z,32.60
2018-02-10T03:01:08.922Z,31.80
2018-02-10T03:02:08.931Z,33.80
2018-02-10T03:03:08.941Z,35.00
2018-02-10T03:04:08.949Z,34.00
2018-02-10T03:05:08.963Z,34.50
2018-02-10T03:06:08.968Z,35.30
2018-02-10T03:07:08.979Z,33.90
2018-02-10T03:08:09.090Z,34.10
2018-02-10T03:09:08.999Z,36.80
2018-02-10T03:10:09.009Z,34.10
2018-02-10T03:11:09.019Z,35.00
2018-02-10T03:12:09.028Z,33.70
2018-02-10T03:13:09.038Z,34.60
2018-02-10T03:14:09.049Z,30.50
2018-02-10T03:15:09.057Z,36.00
2018-02-10T03:16:09.073Z,33.70
2018-02-10T03:17:09.077Z,35.80
2018-02-10T03:18:09.087Z,34.80
2018-02-10T03:19:09.099Z,35.90
2018-02-10T03:20:09.212Z,34.60
2018-02-10T03:21:09.117Z,30.90
2018-02-10T03:22:09.127Z,34.60
2018-02-10T03:23:09.135Z,34.30
2018-02-10T03:24:09.146Z,33.60
2018-02-10T03:25:09.158Z,32.20
2018-02-10T03:26:09.165Z,35.00
2018-02-10T03:27:09.176Z,34.90
2018-02-10T03:28:09.186Z,33.40
2018-02-10T03:29:09.196Z,32.30
2018-02-10T03:30:09.208Z,34.50
2018-02-10T03:31:09.215Z,34.10
2018-02-10T03:32:09.224Z,34.50
2018-02-10T03:33:09.235Z,37.00
2018-02-10T03:34:09.246Z,32.00
2018-02-10T03:35:09.256Z,33.90
2018-02-10T03:36:09.267Z,32.30
2018-02-10T03:37:09.275Z,31.20
2018-02-10T03:38:09.285Z,33.70
2018-02-10T03:39:09.294Z,34.80
2018-02-10T03:40:09.305Z,33.40
2018-02-10T03:41:09.316Z,34.80
2018-02-10T03:42:09.324Z,34.00
2018-02-10T03:43:09.334Z,32.40
2018-02-10T03:44:09.347Z,34.30
2018-02-10T03:45:09.355Z,36.10
2018-02-10T03:46:09.464Z,36.30
2018-02-10T03:47:09.375Z,37.20
2018-02-10T03:48:09.385Z,34.40
2018-02-10T03:49:09.396Z,33.50
2018-02-10T03:50:09.405Z,32.80
2018-02-10T03:51:09.415Z,34.00
2018-02-10T03:52:09.425Z,34.70
2018-02-10T03:53:09.435Z,33.00
2018-02-10T03:54:09.443Z,35.00
2018-02-10T03:55:09.455Z,36.20
2018-02-10T03:56:09.465Z,33.20
2018-02-10T03:57:09.476Z,34.50
2018-02-10T03:58:09.488Z,33.30
2018-02-10T03:59:09.596Z,35.90
2018-02-10T04:00:09.559Z,36.30
2018-02-10T04:01:09.517Z,34.40
2018-02-10T04:02:09.526Z,37.10
2018-02-10T04:03:09.536Z,35.30
2018-02-10T04:04:09.546Z,36.10
2018-02-10T04:05:09.557Z,34.70
2018-02-10T04:06:09.565Z,35.90
2018-02-10T04:07:09.577Z,34.30
2018-02-10T04:08:09.686Z,34.60
2018-02-10T04:09:09.597Z,37.20
2018-02-10T04:10:09.606Z,34.10
2018-02-10T04:11:09.717Z,34.50
2018-02-10T04:12:09.627Z,34.30
2018-02-10T04:13:09.638Z,36.70
2018-02-10T04:14:09.647Z,34.90
2018-02-10T04:15:09.656Z,34.60
2018-02-10T04:16:09.667Z,36.80
2018-02-10T04:17:09.678Z,37.20
2018-02-10T04:18:09.788Z,35.80
2018-02-10T04:19:09.697Z,35.20
2018-02-10T04:20:09.706Z,35.70
2018-02-10T04:21:09.716Z,32.80
2018-02-10T04:22:09.726Z,35.40
2018-02-10T04:23:09.737Z,35.90
2018-02-10T04:24:09.753Z,36.10
2018-02-10T04:25:09.757Z,36.40
2018-02-10T04:26:09.767Z,36.30
2018-02-10T04:27:09.778Z,37.30
2018-02-10T04:28:09.789Z,36.20
2018-02-10T04:29:09.798Z,38.80
2018-02-10T04:30:09.908Z,36.40
2018-02-10T04:31:09.820Z,35.90
2018-02-10T04:32:09.830Z,38.40
2018-02-10T04:33:09.840Z,39.10
2018-02-10T04:34:09.848Z,37.00
2018-02-10T04:35:09.858Z,42.30
2018-02-10T04:36:09.870Z,42.10
2018-02-10T04:37:09.880Z,39.50
2018-02-10T04:38:09.888Z,40.80
2018-02-10T04:39:09.899Z,44.30
2018-02-10T04:40:09.910Z,40.70
2018-02-10T04:41:09.920Z,44.70
2018-02-10T04:42:09.929Z,40.80
2018-02-10T04:43:09.940Z,41.60
2018-02-10T04:44:09.954Z,45.80
2018-02-10T04:45:09.961Z,46.20
2018-02-10T04:46:09.969Z,47.40
2018-02-10T04:47:09.980Z,46.30
2018-02-10T04:48:09.991Z,46.60
2018-02-10T04:49:10.003Z,50.50
2018-02-10T04:50:10.010Z,50.00
2018-02-10T04:51:10.021Z,47.10
2018-02-10T04:52:10.031Z,51.10
2018-02-10T04:53:10.042Z,53.50
2018-02-10T04:54:10.051Z,50.40
2018-02-10T04:55:10.062Z,55.40
2018-02-10T04:56:10.073Z,50.30
2018-02-10T04:57:10.082Z,55.40
2018-02-10T04:58:10.090Z,53.20
2018-02-10T04:59:10.100Z,52.60
2018-02-10T05:00:10.112Z,54.50
2018-02-10T05:01:10.122Z,58.20
2018-02-10T05:02:10.132Z,56.10
2018-02-10T05:03:10.141Z,55.60
2018-02-10T05:04:10.151Z,54.20
2018-02-10T05:05:10.262Z,56.00
2018-02-10T05:06:10.170Z,56.10
2018-02-10T05:07:10.182Z,56.00
2018-02-10T05:08:10.191Z,58.80
2018-02-10T05:09:10.200Z,53.90
2018-02-10T05:10:10.212Z,53.20
2018-02-10T05:11:10.221Z,57.20
2018-02-10T05:12:10.231Z,58.50
2018-02-10T05:13:10.241Z,59.40
2018-02-10T05:14:10.251Z,63.20
2018-02-10T05:15:10.361Z,56.80
2018-02-10T05:16:10.271Z,58.10
2018-02-10T05:17:10.281Z,57.70
2018-02-10T05:18:10.291Z,57.50
2018-02-10T05:19:10.301Z,60.80
2018-02-10T05:20:10.312Z,58.10
2018-02-10T05:21:10.321Z,62.80
2018-02-10T05:22:10.330Z,59.90
2018-02-10T05:23:10.341Z,61.20
2018-02-10T05:24:10.351Z,63.20
2018-02-10T05:25:10.361Z,63.00
2018-02-10T05:26:10.370Z,61.00
2018-02-10T05:27:10.381Z,63.60
2018-02-10T05:28:10.391Z,63.20
2018-02-10T05:29:10.401Z,61.70
2018-02-10T05:30:10.409Z,64.90
2018-02-10T05:31:10.420Z,66.00
2018-02-10T05:32:10.430Z,66.00
2018-02-10T05:33:10.438Z,68.70
2018-02-10T05:34:10.449Z,67.20
2018-02-10T05:35:10.460Z,67.60
2018-02-10T05:36:10.471Z,66.30
2018-02-10T05:37:10.482Z,66.00
2018-02-10T05:38:10.490Z,66.30
2018-02-10T05:39:10.500Z,75.20
2018-02-10T05:40:10.510Z,70.60
2018-02-10T05:41:10.522Z,67.90
2018-02-10T05:42:10.530Z,69.50
2018-02-10T05:43:10.540Z,71.20
2018-02-10T05:44:10.550Z,74.20
2018-02-10T05:45:10.661Z,74.20
2018-02-10T05:46:10.569Z,71.40
2018-02-10T05:47:10.579Z,72.20
2018-02-10T05:48:10.590Z,76.00
2018-02-10T05:49:10.600Z,69.90
2018-02-10T05:50:10.609Z,70.60
2018-02-10T05:51:10.619Z,72.80
2018-02-10T05:52:10.630Z,74.20
2018-02-10T05:53:10.641Z,71.90
2018-02-10T05:54:10.652Z,77.10
2018-02-10T05:55:10.659Z,73.40
2018-02-10T05:56:10.670Z,73.40
2018-02-10T05:57:10.680Z,71.80
2018-02-10T05:58:10.690Z,72.70
2018-02-10T05:59:10.700Z,73.90
2018-02-10T06:00:10.711Z,72.80
2018-02-10T06:01:10.721Z,78.30
2018-02-10T06:02:10.730Z,75.50
2018-02-10T06:03:10.740Z,69.10
2018-02-10T06:04:10.754Z,69.20
2018-02-10T06:05:10.762Z,75.90
2018-02-10T06:06:10.773Z,75.90
2018-02-10T06:07:10.783Z,76.10
2018-02-10T06:08:10.793Z,74.70
2018-02-10T06:09:10.803Z,74.90
2018-02-10T06:10:10.812Z,77.30
2018-02-10T06:11:10.923Z,78.90
2018-02-10T06:12:10.835Z,77.80
2018-02-10T06:13:10.842Z,77.30
2018-02-10T06:14:10.852Z,75.20
2018-02-10T06:15:10.863Z,79.60
2018-02-10T06:16:10.872Z,76.50
2018-02-10T06:17:10.882Z,73.60
2018-02-10T06:18:10.892Z,76.60
2018-02-10T06:19:10.902Z,77.20
2018-02-10T06:20:10.912Z,77.10
2018-02-10T06:21:10.922Z,74.50
2018-02-10T06:22:10.933Z,77.50
2018-02-10T06:23:10.992Z,78.00
2018-02-10T06:24:10.953Z,74.40
2018-02-10T06:25:10.962Z,80.40
2018-02-10T06:26:10.972Z,72.50
2018-02-10T06:27:10.983Z,78.60
2018-02-10T06:28:10.992Z,78.30
2018-02-10T06:29:11.004Z,79.10
2018-02-10T06:30:11.013Z,79.60
2018-02-10T06:31:11.030Z,78.70
2018-02-10T06:32:11.034Z,76.10
2018-02-10T06:33:11.047Z,79.70
2018-02-10T06:34:11.052Z,78.70
2018-02-10T06:35:11.063Z,85.00
2018-02-10T06:36:11.076Z,80.70
2018-02-10T06:37:11.083Z,81.50
2018-02-10T06:38:11.096Z,80.30
2018-02-10T06:39:11.102Z,78.50
2018-02-10T06:40:11.113Z,81.10
2018-02-10T06:41:11.174Z,85.00
2018-02-10T06:42:11.132Z,82.60
2018-02-10T06:43:11.143Z,85.50
2018-02-10T06:44:11.153Z,83.60
2018-02-10T06:45:11.163Z,88.60
2018-02-10T06:46:11.174Z,90.30
2018-02-10T06:47:11.184Z,86.90
2018-02-10T06:48:11.294Z,89.20
2018-02-10T06:49:11.202Z,92.00
2018-02-10T06:50:11.213Z,88.00
2018-02-10T06:51:11.225Z,84.20
2018-02-10T06:52:11.234Z,87.80
2018-02-10T06:53:11.245Z,90.80
2018-02-10T06:54:11.255Z,88.20
2018-02-10T06:55:11.265Z,93.50
2018-02-10T06:56:11.275Z,87.60
2018-02-10T06:57:11.285Z,87.60
2018-02-10T06:58:11.332Z,85.90
2018-02-10T06:59:11.305Z,91.10
2018-02-10T07:00:11.316Z,94.00
2018-02-10T07:01:11.325Z,87.40
2018-02-10T07:02:11.334Z,89.90
2018-02-10T07:03:11.345Z,95.30
2018-02-10T07:04:11.356Z,93.30
2018-02-10T07:05:11.365Z,95.10
2018-02-10T07:06:11.375Z,92.00
2018-02-10T07:07:11.385Z,92.60
2018-02-10T07:08:11.398Z,98.30
2018-02-10T07:09:11.409Z,96.20
2018-02-10T07:10:11.415Z,96.80
2018-02-10T07:11:11.425Z,98.00
2018-02-10T07:12:11.438Z,96.70
2018-02-10T07:13:11.447Z,99.50
2018-02-10T07:14:11.455Z,102.00
2018-02-10T07:15:11.468Z,91.70
2018-02-10T07:16:11.478Z,96.90
2018-02-10T07:17:11.488Z,104.30
2018-02-10T07:18:11.500Z,103.40
2018-02-10T07:19:11.507Z,97.20
2018-02-10T07:20:11.515Z,92.80
2018-02-10T07:21:11.521Z,91.80
2018-02-10T07:22:11.531Z,99.60
2018-02-10T07:23:11.540Z,92.80
2018-02-10T07:24:11.552Z,94.70
2018-02-10T07:25:11.625Z,99.00
2018-02-10T07:26:11.570Z,89.50
2018-02-10T07:27:11.581Z,92.40
2018-02-10T07:28:11.591Z,92.80
2018-02-10T07:29:11.602Z,86.70
2018-02-10T07:30:11.614Z,82.30
2018-02-10T07:31:11.625Z,90.00
2018-02-10T07:32:11.633Z,86.90
2018-02-10T07:33:11.644Z,90.00
2018-02-10T07:34:11.653Z,83.60
2018-02-10T07:35:11.662Z,88.90
2018-02-10T07:36:11.674Z,83.50
2018-02-10T07:37:11.683Z,87.90
2018-02-10T07:38:11.697Z,91.20
2018-02-10T07:39:11.804Z,94.10
2018-02-10T07:40:11.714Z,90.60
2018-02-10T07:41:11.724Z,89.50
2018-02-10T07:42:11.834Z,83.40
2018-02-10T07:43:11.745Z,88.90
2018-02-10T07:44:11.755Z,82.60
2018-02-10T07:45:11.965Z,90.70
2018-02-10T07:46:11.774Z,88.50
2018-02-10T07:47:11.784Z,91.00
2018-02-10T07:48:11.795Z,88.80
2018-02-10T07:49:11.805Z,87.40
2018-02-10T07:50:11.815Z,89.00
2018-02-10T07:51:11.825Z,80.60
2018-02-10T07:52:11.836Z,88.10
2018-02-10T07:53:11.843Z,87.80
2018-02-10T07:54:11.855Z,84.80
2018-02-10T07:55:11.867Z,89.80
2018-02-10T07:56:11.976Z,91.90
2018-02-10T07:57:11.886Z,89.40
2018-02-10T07:58:11.896Z,83.20
2018-02-10T07:59:11.906Z,89.30
2018-02-10T08:00:11.916Z,94.40
2018-02-10T08:01:11.930Z,91.30
2018-02-10T08:02:11.939Z,90.10
2018-02-10T08:03:11.947Z,83.20
2018-02-10T08:04:11.957Z,87.30
2018-02-10T08:05:11.968Z,86.30
2018-02-10T08:06:12.078Z,86.00
2018-02-10T08:07:11.987Z,88.00
2018-02-10T08:08:12.099Z,91.70
2018-02-10T08:09:12.009Z,91.50
2018-02-10T08:10:12.023Z,92.10
2018-02-10T08:11:12.028Z,91.00
2018-02-10T08:12:12.038Z,95.00
2018-02-10T08:13:12.049Z,90.20
2018-02-10T08:14:12.058Z,92.50
2018-02-10T08:15:12.118Z,92.70
2018-02-10T08:16:12.079Z,92.70
2018-02-10T08:17:12.090Z,92.80
2018-02-10T08:18:12.099Z,99.10
2018-02-10T08:19:12.110Z,95.30
2018-02-10T08:20:12.120Z,96.00
2018-02-10T08:21:12.129Z,91.00
2018-02-10T08:22:12.139Z,93.20
2018-02-10T08:23:12.150Z,92.60
2018-02-10T08:24:12.161Z,100.60
2018-02-10T08:25:12.171Z,97.90
2018-02-10T08:26:12.180Z,92.00
2018-02-10T08:27:12.192Z,94.80
2018-02-10T08:28:12.201Z,96.40
2018-02-10T08:29:12.212Z,95.70
2018-02-10T08:30:12.222Z,88.40
2018-02-10T08:31:12.281Z,94.10
2018-02-10T08:32:12.241Z,89.20
2018-02-10T08:33:12.253Z,92.10
2018-02-10T08:34:12.263Z,92.90
2018-02-10T08:35:12.273Z,93.00
2018-02-10T08:36:12.284Z,88.80
2018-02-10T08:37:12.307Z,94.00
2018-02-10T08:38:12.302Z,90.40
2018-02-10T08:39:12.314Z,87.40
2018-02-10T08:40:12.326Z,87.30
2018-02-10T08:41:12.332Z,86.90
2018-02-10T08:42:12.345Z,94.80
2018-02-10T08:43:12.357Z,87.80
2018-02-10T08:44:12.366Z,90.70
2018-02-10T08:45:12.376Z,87.30
2018-02-10T08:46:12.385Z,89.40
2018-02-10T08:47:12.396Z,91.20
2018-02-10T08:48:12.406Z,92.90
2018-02-10T08:49:12.417Z,93.60
2018-02-10T08:50:12.427Z,91.70
2018-02-10T08:51:12.438Z,90.80
2018-02-10T08:53:12.449Z,87.00
2018-02-10T08:54:12.458Z,97.80
2018-02-10T08:55:12.467Z,92.20
2018-02-10T08:56:12.479Z,82.20
2018-02-10T08:57:12.490Z,86.90
2018-02-10T08:58:12.500Z,86.40
2018-02-10T08:59:12.516Z,85.40
2018-02-10T09:00:12.528Z,84.30
2018-02-10T09:01:12.533Z,82.80
2018-02-10T09:02:12.543Z,86.90
2018-02-10T09:03:12.553Z,85.30
2018-02-10T09:04:12.563Z,85.00
2018-02-10T09:05:12.575Z,80.40
2018-02-10T09:06:12.584Z,84.40
2018-02-10T09:07:12.595Z,80.00
2018-02-10T09:08:12.605Z,78.60
2018-02-10T09:09:12.616Z,76.00
2018-02-10T09:10:12.624Z,81.60
2018-02-10T09:11:12.636Z,70.00
2018-02-10T09:12:12.647Z,75.30
2018-02-10T09:13:12.659Z,77.20
2018-02-10T09:14:12.666Z,77.70
2018-02-10T09:15:12.679Z,74.30
2018-02-10T09:16:12.689Z,71.90
2018-02-10T09:17:12.701Z,74.50
2018-02-10T09:18:12.710Z,74.60
2018-02-10T09:19:12.718Z,69.30
2018-02-10T09:20:12.730Z,73.80
2018-02-10T09:21:12.741Z,71.60
2018-02-10T09:22:12.752Z,68.70
2018-02-10T09:23:12.762Z,66.50
2018-02-10T09:24:12.773Z,74.00
2018-02-10T09:25:12.784Z,66.70
2018-02-10T09:26:12.793Z,64.10
2018-02-10T09:27:12.803Z,67.90
2018-02-10T09:28:12.816Z,71.00
2018-02-10T09:29:12.825Z,66.20
2018-02-10T09:30:12.834Z,69.80
2018-02-10T09:31:12.846Z,66.90
2018-02-10T09:32:12.857Z,65.30
2018-02-10T09:33:12.868Z,64.70
2018-02-10T09:34:12.876Z,66.40
2018-02-10T09:35:12.888Z,68.90
2018-02-10T09:36:12.899Z,66.00
2018-02-10T09:37:12.909Z,64.00
2018-02-10T09:38:12.920Z,69.50
2018-02-10T09:39:12.981Z,69.90
2018-02-10T09:40:12.941Z,63.00
2018-02-10T09:41:12.954Z,64.70
2018-02-10T09:42:12.968Z,65.20
2018-02-10T09:43:12.974Z,66.30
2018-02-10T09:44:12.984Z,67.60
2018-02-10T09:45:13.008Z,58.80
2018-02-10T09:46:13.004Z,65.40
2018-02-10T09:47:13.015Z,65.60
2018-02-10T09:48:13.027Z,63.60
2018-02-10T09:49:13.038Z,62.00
2018-02-10T09:50:13.048Z,62.10
2018-02-10T09:51:13.060Z,64.70
2018-02-10T09:52:13.093Z,57.80
2018-02-10T09:53:13.081Z,60.40
2018-02-10T09:54:13.091Z,64.20
2018-02-10T09:55:13.101Z,67.50
2018-02-10T09:56:13.113Z,61.10
2018-02-10T09:57:13.124Z,65.90
2018-02-10T09:58:13.133Z,57.90
2018-02-10T09:59:13.145Z,60.70
2018-02-10T10:00:13.158Z,59.30
2018-02-10T10:01:13.167Z,56.60
2018-02-10T10:02:13.176Z,63.10
2018-02-10T10:03:13.186Z,56.10
2018-02-10T10:04:13.204Z,56.70
2018-02-10T10:05:13.310Z,58.70
2018-02-10T10:06:13.221Z,58.20
2018-02-10T10:07:13.231Z,59.30
2018-02-10T10:08:13.242Z,54.20
2018-02-10T10:09:13.252Z,59.20
2018-02-10T10:10:13.262Z,60.60
2018-02-10T10:11:13.274Z,59.20
2018-02-10T10:12:13.285Z,56.60
2018-02-10T10:13:13.295Z,57.90
2018-02-10T10:14:13.306Z,61.00
2018-02-10T10:15:13.316Z,62.60
2018-02-10T10:16:13.428Z,64.80
2018-02-10T10:17:13.440Z,60.80
2018-02-10T10:18:13.449Z,59.00
2018-02-10T10:19:13.359Z,58.80
2018-02-10T10:20:13.371Z,66.90
2018-02-10T10:21:13.412Z,57.90
2018-02-10T10:22:13.446Z,59.60
2018-02-10T10:23:13.403Z,65.40
2018-02-10T10:24:13.413Z,60.30
2018-02-10T10:25:13.480Z,60.90
2018-02-10T10:26:13.434Z,70.40
2018-02-10T10:27:13.536Z,66.50
2018-02-10T10:28:13.457Z,66.40
2018-02-10T10:29:13.466Z,67.30
2018-02-10T10:30:13.478Z,64.10
2018-02-10T10:31:13.493Z,65.20
2018-02-10T10:32:13.499Z,69.20
2018-02-10T10:33:13.511Z,69.80
2018-02-10T10:34:13.522Z,66.30
2018-02-10T10:35:13.530Z,70.30
2018-02-10T10:36:13.544Z,67.70
2018-02-10T10:37:13.554Z,72.00
2018-02-10T10:38:13.564Z,66.30
2018-02-10T10:39:13.575Z,73.50
2018-02-10T10:40:13.586Z,74.50
2018-02-10T10:41:13.596Z,69.90
2018-02-10T10:42:13.607Z,71.30
2018-02-10T10:43:13.616Z,66.00
2018-02-10T10:44:13.629Z,72.20
2018-02-10T10:45:13.638Z,66.20
2018-02-10T10:46:13.647Z,70.40
2018-02-10T10:47:13.671Z,76.80
2018-02-10T10:48:13.671Z,72.20
2018-02-10T10:49:13.681Z,70.50
2018-02-10T10:50:13.691Z,72.50
2018-02-10T10:51:13.701Z,72.20
2018-02-10T10:52:13.715Z,69.50
2018-02-10T10:53:13.724Z,68.60
2018-02-10T10:54:13.734Z,67.90
2018-02-10T10:55:13.745Z,71.40
2018-02-10T10:56:13.756Z,69.30
2018-02-10T10:57:13.766Z,71.60
2018-02-10T10:58:13.775Z,74.40
2018-02-10T10:59:13.785Z,72.60
2018-02-10T11:00:13.806Z,67.50
2018-02-10T11:01:13.809Z,73.20
2018-02-10T11:02:13.820Z,71.30
2018-02-10T11:03:13.828Z,74.30
2018-02-10T11:04:13.839Z,73.40
2018-02-10T11:05:13.851Z,76.70
2018-02-10T11:06:13.861Z,72.10
2018-02-10T11:07:13.872Z,73.30
2018-02-10T11:08:13.997Z,77.00
2018-02-10T11:09:14.126Z,77.70
2018-02-10T11:10:13.910Z,74.30
2018-02-10T11:11:13.914Z,78.80
2018-02-10T11:12:13.929Z,79.50
2018-02-10T11:13:13.937Z,78.40
2018-02-10T11:14:13.947Z,75.40
2018-02-10T11:15:14.060Z,76.50
2018-02-10T11:16:13.967Z,83.80
2018-02-10T11:17:13.979Z,81.40
2018-02-10T11:18:14.089Z,81.50
2018-02-10T11:19:13.999Z,83.60
2018-02-10T11:20:14.011Z,89.70
2018-02-10T11:21:14.074Z,79.90
2018-02-10T11:22:14.039Z,87.10
2018-02-10T11:23:14.040Z,83.40
2018-02-10T11:24:14.053Z,81.60
2018-02-10T11:25:14.065Z,85.90
2018-02-10T11:26:14.074Z,90.90
2018-02-10T11:27:14.085Z,89.20
2018-02-10T11:28:14.096Z,83.90
2018-02-10T11:29:14.106Z,90.10
2018-02-10T11:30:14.119Z,83.50
2018-02-10T11:31:14.128Z,88.80
2018-02-10T11:32:14.139Z,88.20
2018-02-10T11:33:14.149Z,93.50
2018-02-10T11:34:14.162Z,91.60
2018-02-10T11:35:14.170Z,98.10
2018-02-10T11:36:14.181Z,87.70
2018-02-10T11:37:14.192Z,90.70
2018-02-10T11:38:14.304Z,93.00
2018-02-10T11:39:14.218Z,94.00
2018-02-10T11:40:14.230Z,89.10
2018-02-10T11:41:14.236Z,92.00
2018-02-10T11:42:14.245Z,91.00
2018-02-10T11:43:14.259Z,93.80
2018-02-10T11:44:14.267Z,86.20
2018-02-10T11:45:14.279Z,91.60
2018-02-10T11:46:14.289Z,91.20
2018-02-10T11:47:14.300Z,90.90
2018-02-10T11:48:14.313Z,90.00
2018-02-10T11:49:14.323Z,88.60
2018-02-10T11:50:14.433Z,86.20
2018-02-10T11:51:14.343Z,84.60
2018-02-10T11:52:14.456Z,89.60
2018-02-10T11:53:14.367Z,88.10
2018-02-10T11:54:14.377Z,84.80
2018-02-10T11:55:14.390Z,82.50
2018-02-10T11:56:14.399Z,87.70
2018-02-10T11:57:14.411Z,91.20
2018-02-10T11:58:14.421Z,89.90
2018-02-10T11:59:14.432Z,81.80
2018-02-10T12:00:14.444Z,86.10
2018-02-10T12:01:14.458Z,86.50
2018-02-10T12:02:14.465Z,83.70
2018-02-10T12:03:14.476Z,84.10
2018-02-10T12:04:14.487Z,90.70
2018-02-10T12:05:14.498Z,92.00
2018-02-10T12:06:14.508Z,94.20
2018-02-10T12:07:14.519Z,85.40
2018-02-10T12:08:14.530Z,88.00
2018-02-10T12:09:14.541Z,89.00
2018-02-10T12:10:14.551Z,96.50
2018-02-10T12:11:14.563Z,87.30
2018-02-10T12:12:14.574Z,87.00
2018-02-10T12:13:14.585Z,92.50
2018-02-10T12:14:14.599Z,89.00
2018-02-10T12:15:14.606Z,88.90
2018-02-10T12:16:14.618Z,88.70
2018-02-10T12:17:14.731Z,89.20
2018-02-10T12:18:14.638Z,88.20
2018-02-10T12:19:14.650Z,91.80
2018-02-10T12:20:14.661Z,86.10
2018-02-10T12:21:14.676Z,86.60
2018-02-10T12:22:14.682Z,83.20
2018-02-10T12:23:14.694Z,80.10
2018-02-10T12:24:14.716Z,83.40
2018-02-10T12:25:14.719Z,80.80
2018-02-10T12:26:14.726Z,80.00
2018-02-10T12:27:14.737Z,80.70
2018-02-10T12:28:14.748Z,79.20
2018-02-10T12:29:14.753Z,80.30
2018-02-10T12:30:14.768Z,77.70
2018-02-10T12:31:14.775Z,80.90
2018-02-10T12:32:14.786Z,78.00
2018-02-10T12:33:14.796Z,81.40
2018-02-10T12:34:14.807Z,83.20
2018-02-10T12:35:14.819Z,82.80
2018-02-10T12:36:14.847Z,83.30
2018-02-10T12:37:14.843Z,85.00
2018-02-10T12:38:14.851Z,86.00
2018-02-10T12:39:14.866Z,92.50
2018-02-10T12:40:14.876Z,86.70
2018-02-10T12:41:14.885Z,88.00
2018-02-10T12:42:14.896Z,101.50
2018-02-10T12:43:14.908Z,84.80
2018-02-10T12:44:14.920Z,88.00
2018-02-10T12:45:14.930Z,84.70
2018-02-10T12:46:14.940Z,85.00
2018-02-10T12:47:14.952Z,74.80
2018-02-10T12:48:14.962Z,88.70
2018-02-10T12:49:14.975Z,84.90
2018-02-10T12:50:14.985Z,88.20
2018-02-10T12:51:14.998Z,89.80
2018-02-10T12:52:15.007Z,95.40
2018-02-10T12:53:15.024Z,88.40